Terminal Aerodrome Forecast
Issued by NWS Salt Lake City, UT

Home | Current Version | Previous Version | Text Only | Print | Product List | Glossary On
Versions: 1 2 3 4 5 6 7 8 9 10 11 12 13 14 15 16 17 18 19 20
000
FTUS45 KSLC 220526
TAFCDC
TAF
KCDC 220526Z 2206/2306 15007KT P6SM SCT060 BKN150
     FM221600 19010KT P6SM VCSH SCT020 BKN050
     FM221800 21015G25KT 2SM -SN BR SCT007 BKN015=

USA.gov is the U.S. government's official web portal to all federal, state and local government web resources and services.